createdAt,value
2023-01-29T00:01:29.189Z,4.58
2023-01-29T00:04:11.797Z,4.51
2023-01-29T00:06:49.012Z,4.49
2023-01-29T00:09:30.830Z,4.45
2023-01-29T00:12:01.410Z,4.41
2023-01-29T00:15:00.511Z,4.40
2023-01-29T00:17:32.456Z,4.36
2023-01-29T00:19:59.414Z,4.30
2023-01-29T00:22:47.731Z,4.39
2023-01-29T00:25:15.476Z,4.35
2023-01-29T00:27:51.712Z,4.43
2023-01-29T00:30:32.369Z,4.29
2023-01-29T00:33:30.416Z,4.15
2023-01-29T00:36:13.081Z,4.18
2023-01-29T00:38:50.027Z,4.21
2023-01-29T00:41:17.876Z,4.15
2023-01-29T00:44:16.483Z,4.06
2023-01-29T00:46:45.196Z,4.13
2023-01-29T00:49:19.800Z,4.10
2023-01-29T00:51:56.140Z,3.98
2023-01-29T00:54:34.965Z,4.03
2023-01-29T00:57:09.351Z,4.13
2023-01-29T00:59:51.398Z,4.01
2023-01-29T01:02:43.061Z,4.03
2023-01-29T01:05:21.042Z,4.03
2023-01-29T01:08:15.556Z,4.07
2023-01-29T01:10:58.092Z,4.08
2023-01-29T01:13:39.851Z,4.07
2023-01-29T01:16:18.565Z,4.25
2023-01-29T01:18:55.513Z,4.19
2023-01-29T01:21:42.655Z,4.24
2023-01-29T01:24:20.717Z,4.17
2023-01-29T01:27:01.940Z,4.21
2023-01-29T01:29:47.139Z,4.20
2023-01-29T01:32:24.942Z,4.17
2023-01-29T01:34:53.657Z,4.07
2023-01-29T01:37:27.841Z,4.07
2023-01-29T01:39:58.279Z,4.11
2023-01-29T01:42:39.878Z,4.00
2023-01-29T01:45:19.661Z,3.95
2023-01-29T01:48:03.007Z,3.95
2023-01-29T01:50:45.609Z,3.98
2023-01-29T01:53:24.110Z,3.98
2023-01-29T01:56:19.907Z,3.91
2023-01-29T01:59:07.707Z,3.91
2023-01-29T02:01:48.360Z,3.93
2023-01-29T02:04:22.894Z,3.94
2023-01-29T02:06:53.719Z,3.92
2023-01-29T02:09:34.117Z,3.89
2023-01-29T02:12:15.582Z,3.82
2023-01-29T02:14:42.718Z,3.72
2023-01-29T02:17:17.518Z,3.64
2023-01-29T02:20:02.675Z,3.93
2023-01-29T02:23:06.466Z,3.85
2023-01-29T02:25:52.792Z,3.76
2023-01-29T02:28:41.820Z,3.74
2023-01-29T02:31:35.863Z,3.76
2023-01-29T02:34:21.246Z,3.73
2023-01-29T02:37:03.426Z,3.65
2023-01-29T02:39:53.065Z,3.50
2023-01-29T02:42:36.337Z,3.49
2023-01-29T02:45:29.429Z,3.37
2023-01-29T02:48:03.020Z,3.36
2023-01-29T02:51:12.462Z,3.34
2023-01-29T02:53:59.266Z,3.41
2023-01-29T02:57:07.547Z,3.62
2023-01-29T02:59:50.515Z,3.55
2023-01-29T03:02:40.396Z,3.55
2023-01-29T03:05:15.085Z,3.63
2023-01-29T03:07:49.198Z,3.34
2023-01-29T03:10:29.676Z,3.41
2023-01-29T03:13:34.635Z,3.37
2023-01-29T03:16:14.267Z,3.28
2023-01-29T03:18:46.887Z,3.50
2023-01-29T03:21:19.912Z,3.46
2023-01-29T03:23:46.452Z,3.47
2023-01-29T03:26:16.999Z,3.39
2023-01-29T03:28:46.413Z,3.29
2023-01-29T03:31:14.859Z,3.21
2023-01-29T03:33:54.934Z,3.29
2023-01-29T03:36:30.141Z,3.25
2023-01-29T03:39:19.240Z,3.35
2023-01-29T03:42:02.787Z,3.26
2023-01-29T03:44:35.031Z,3.13
2023-01-29T03:47:17.354Z,3.05
2023-01-29T03:50:21.003Z,3.07
2023-01-29T03:53:20.790Z,3.12
2023-01-29T03:56:03.847Z,3.16
2023-01-29T03:58:43.052Z,3.14
2023-01-29T04:01:20.910Z,3.21
2023-01-29T04:04:22.692Z,3.15
2023-01-29T04:06:52.701Z,2.95
2023-01-29T04:09:32.297Z,3.14
2023-01-29T04:12:10.532Z,3.04
2023-01-29T04:14:38.930Z,2.99
2023-01-29T04:17:25.311Z,2.90
2023-01-29T04:19:57.730Z,2.99
2023-01-29T04:22:33.096Z,2.98
2023-01-29T04:25:15.403Z,2.83
2023-01-29T04:27:56.259Z,2.85
2023-01-29T04:31:05.701Z,3.07
2023-01-29T04:33:44.155Z,3.50
2023-01-29T04:36:25.762Z,3.29
2023-01-29T04:39:18.185Z,3.16
2023-01-29T04:42:06.447Z,2.94
2023-01-29T04:44:48.807Z,3.11
2023-01-29T04:47:56.739Z,3.00
2023-01-29T04:50:38.645Z,2.86
2023-01-29T04:53:31.881Z,2.95
2023-01-29T04:56:15.660Z,2.85
2023-01-29T04:58:57.587Z,2.89
2023-01-29T05:01:30.022Z,2.80
2023-01-29T05:03:59.440Z,2.75
2023-01-29T05:06:29.499Z,2.77
2023-01-29T05:09:03.358Z,2.67
2023-01-29T05:11:39.898Z,2.59
2023-01-29T05:14:11.541Z,2.63
2023-01-29T05:16:43.086Z,2.62
2023-01-29T05:19:14.835Z,2.71
2023-01-29T05:21:56.217Z,2.56
2023-01-29T05:24:39.341Z,2.59
2023-01-29T05:27:14.455Z,2.59
2023-01-29T05:29:45.563Z,2.59
2023-01-29T05:32:12.676Z,2.52
2023-01-29T05:34:39.313Z,2.46
2023-01-29T05:37:20.269Z,2.44
2023-01-29T05:39:57.873Z,2.39
2023-01-29T05:42:24.471Z,2.35
2023-01-29T05:44:52.419Z,2.52
2023-01-29T05:47:22.788Z,2.45
2023-01-29T05:49:49.364Z,2.48
2023-01-29T05:52:16.564Z,2.45
2023-01-29T05:54:53.769Z,2.41
2023-01-29T05:57:24.708Z,2.47
2023-01-29T06:00:00.808Z,2.55
2023-01-29T06:02:30.177Z,2.54
2023-01-29T06:04:59.718Z,2.45
2023-01-29T06:07:31.374Z,2.41
2023-01-29T06:10:00.226Z,2.43
2023-01-29T06:12:27.393Z,2.49
2023-01-29T06:14:54.158Z,2.40
2023-01-29T06:17:23.471Z,2.35
2023-01-29T06:19:57.687Z,2.41
2023-01-29T06:22:24.256Z,2.42
2023-01-29T06:24:50.780Z,2.40
2023-01-29T06:27:19.655Z,2.41
2023-01-29T06:29:46.229Z,2.43
2023-01-29T06:32:12.880Z,2.34
2023-01-29T06:34:39.469Z,2.33
2023-01-29T06:37:06.583Z,2.37
2023-01-29T06:39:33.325Z,2.39
2023-01-29T06:42:02.885Z,2.31
2023-01-29T06:44:29.492Z,2.39
2023-01-29T06:46:56.024Z,2.36
2023-01-29T06:49:22.853Z,2.36
2023-01-29T06:51:49.748Z,2.42
2023-01-29T06:54:27.923Z,2.44
2023-01-29T06:57:00.594Z,2.47
2023-01-29T06:59:30.579Z,2.32
2023-01-29T07:02:00.307Z,2.34
2023-01-29T07:04:26.949Z,2.31
2023-01-29T07:06:53.529Z,2.39
2023-01-29T07:09:20.152Z,2.45
2023-01-29T07:11:46.703Z,2.57
2023-01-29T07:14:18.633Z,2.52
2023-01-29T07:16:54.446Z,2.76
2023-01-29T07:19:24.403Z,2.59
2023-01-29T07:21:59.827Z,2.59
2023-01-29T07:24:26.435Z,2.59
2023-01-29T07:26:53.071Z,2.61
2023-01-29T07:29:20.824Z,2.64
2023-01-29T07:31:48.067Z,2.93
2023-01-29T07:34:20.666Z,2.92
2023-01-29T07:36:56.412Z,2.89
2023-01-29T07:39:23.487Z,2.86
2023-01-29T07:41:52.919Z,2.78
2023-01-29T07:44:26.520Z,2.79
2023-01-29T07:46:58.929Z,2.87
2023-01-29T07:49:28.139Z,2.89
2023-01-29T07:51:54.727Z,2.99
2023-01-29T07:54:21.301Z,3.06
2023-01-29T07:56:49.370Z,3.22
2023-01-29T07:59:18.646Z,3.24
2023-01-29T08:01:47.965Z,3.27
2023-01-29T08:04:18.265Z,3.23
2023-01-29T08:06:44.901Z,3.27
2023-01-29T08:09:11.487Z,3.20
2023-01-29T08:11:41.061Z,3.17
2023-01-29T08:14:07.815Z,3.35
2023-01-29T08:16:34.436Z,3.40
2023-01-29T08:19:05.439Z,3.64
2023-01-29T08:21:38.254Z,3.42
2023-01-29T08:24:05.371Z,3.64
2023-01-29T08:26:31.940Z,3.58
2023-01-29T08:28:58.832Z,3.62
2023-01-29T08:31:25.633Z,3.81
2023-01-29T08:33:58.235Z,3.75
2023-01-29T08:36:34.101Z,3.69
2023-01-29T08:39:05.041Z,3.90
2023-01-29T08:41:41.821Z,4.13
2023-01-29T08:44:09.749Z,4.18
2023-01-29T08:46:50.218Z,4.19
2023-01-29T08:49:23.751Z,4.08
2023-01-29T08:52:03.110Z,4.41
2023-01-29T08:54:49.477Z,4.07
2023-01-29T08:57:22.464Z,4.30
2023-01-29T08:59:54.284Z,4.54
2023-01-29T09:02:25.525Z,4.53
2023-01-29T09:04:53.401Z,4.74
2023-01-29T09:07:21.613Z,4.78
2023-01-29T09:09:58.509Z,4.65
2023-01-29T09:12:34.020Z,4.40
2023-01-29T09:15:03.457Z,4.44
2023-01-29T09:17:30.076Z,4.31
2023-01-29T09:20:01.896Z,4.77
2023-01-29T09:22:28.696Z,4.97
2023-01-29T09:24:58.210Z,4.75
2023-01-29T09:27:25.026Z,4.83
2023-01-29T09:29:55.180Z,5.09
2023-01-29T09:32:49.715Z,5.26
2023-01-29T09:35:08.720Z,5.53
2023-01-29T09:37:35.808Z,5.09
2023-01-29T09:40:15.987Z,5.09
2023-01-29T09:42:50.673Z,4.96
2023-01-29T09:45:27.369Z,5.41
2023-01-29T09:48:02.956Z,5.47
2023-01-29T09:51:04.098Z,5.49
2023-01-29T09:53:52.110Z,5.11
2023-01-29T09:56:28.740Z,5.37
2023-01-29T09:59:00.526Z,5.42
2023-01-29T10:01:40.159Z,6.02
2023-01-29T10:04:40.574Z,5.92
2023-01-29T10:07:33.287Z,5.92
2023-01-29T10:10:03.867Z,5.52
2023-01-29T10:12:53.673Z,6.09
2023-01-29T10:15:40.680Z,5.97
2023-01-29T10:18:18.046Z,6.11
2023-01-29T10:21:11.899Z,6.01
2023-01-29T10:23:55.835Z,6.12
2023-01-29T10:26:26.447Z,6.10
2023-01-29T10:28:55.631Z,6.06
2023-01-29T10:31:31.048Z,6.22
2023-01-29T10:34:08.665Z,6.55
2023-01-29T10:36:55.104Z,6.32
2023-01-29T10:39:32.678Z,6.44
2023-01-29T10:42:44.980Z,6.30
2023-01-29T10:45:29.938Z,6.09
2023-01-29T10:48:29.974Z,6.12
2023-01-29T10:51:17.734Z,6.00
2023-01-29T10:54:09.406Z,6.38
2023-01-29T10:57:01.637Z,6.42
2023-01-29T10:59:47.226Z,6.13
2023-01-29T11:02:30.347Z,6.27
2023-01-29T11:05:05.760Z,6.32
2023-01-29T11:07:35.131Z,6.60
2023-01-29T11:10:27.362Z,6.19
2023-01-29T11:13:06.721Z,6.05
2023-01-29T11:15:38.837Z,6.14
2023-01-29T11:18:11.523Z,6.20
2023-01-29T11:20:38.272Z,6.38
2023-01-29T11:23:24.951Z,6.44
2023-01-29T11:26:05.868Z,6.69
2023-01-29T11:28:47.179Z,6.49
2023-01-29T11:31:38.631Z,6.99
2023-01-29T11:34:19.223Z,6.74
2023-01-29T11:36:45.949Z,6.46
2023-01-29T11:42:22.440Z,6.91
2023-01-29T11:44:52.529Z,7.03
2023-01-29T11:47:27.622Z,7.04
2023-01-29T11:50:24.818Z,6.52
2023-01-29T11:52:51.930Z,6.32
2023-01-29T11:55:44.339Z,6.26
2023-01-29T11:58:33.542Z,6.44
2023-01-29T12:01:00.582Z,6.58
2023-01-29T12:03:50.066Z,6.63
2023-01-29T12:06:39.352Z,6.54
2023-01-29T12:09:46.261Z,6.67
2023-01-29T12:12:47.409Z,6.40
2023-01-29T12:15:21.329Z,6.63
2023-01-29T12:18:05.226Z,7.16
2023-01-29T12:20:52.333Z,7.23
2023-01-29T12:24:00.033Z,7.32
2023-01-29T12:26:50.528Z,7.29
2023-01-29T12:29:51.448Z,7.37
2023-01-29T12:32:35.996Z,7.22
2023-01-29T12:35:20.876Z,7.21
2023-01-29T12:38:26.771Z,7.54
2023-01-29T12:40:58.821Z,7.67
2023-01-29T12:43:35.367Z,7.76
2023-01-29T12:46:15.648Z,7.84
2023-01-29T12:48:50.087Z,7.61
2023-01-29T12:51:29.677Z,7.46
2023-01-29T12:54:23.071Z,7.33
2023-01-29T12:57:18.135Z,7.40
2023-01-29T12:59:51.085Z,7.24
2023-01-29T13:02:40.980Z,7.45
2023-01-29T13:05:23.486Z,7.72
2023-01-29T13:07:57.952Z,7.72
2023-01-29T13:10:52.080Z,7.45
2023-01-29T13:13:42.739Z,7.23
2023-01-29T13:16:18.827Z,7.15
2023-01-29T13:19:07.526Z,7.16
2023-01-29T13:21:41.935Z,7.18
2023-01-29T13:24:19.439Z,7.26
2023-01-29T13:26:49.814Z,7.25
2023-01-29T13:29:31.148Z,7.21
2023-01-29T13:32:10.703Z,7.24
2023-01-29T13:34:47.426Z,7.16
2023-01-29T13:40:07.322Z,7.12
2023-01-29T13:42:49.808Z,7.12
2023-01-29T13:45:34.143Z,7.13
2023-01-29T13:48:26.006Z,6.99
2023-01-29T13:51:01.558Z,6.98
2023-01-29T13:53:40.148Z,7.12
2023-01-29T13:56:34.863Z,7.11
2023-01-29T13:59:03.325Z,7.48
2023-01-29T14:01:47.920Z,7.27
2023-01-29T14:04:23.144Z,7.11
2023-01-29T14:06:51.941Z,7.29
2023-01-29T14:09:49.834Z,7.36
2023-01-29T14:12:26.466Z,7.23
2023-01-29T14:14:55.794Z,7.25
2023-01-29T14:17:33.527Z,7.42
2023-01-29T14:20:20.919Z,7.33
2023-01-29T14:22:56.515Z,7.33
2023-01-29T14:25:32.123Z,7.27
2023-01-29T14:28:01.857Z,7.16
2023-01-29T14:30:32.947Z,7.13
2023-01-29T14:32:59.912Z,7.28
2023-01-29T14:35:30.755Z,7.30
2023-01-29T14:38:08.635Z,7.22
2023-01-29T14:40:36.031Z,7.27
2023-01-29T14:43:20.092Z,7.16
2023-01-29T14:45:50.081Z,7.00
2023-01-29T14:48:35.306Z,7.02
2023-01-29T14:51:14.260Z,6.95
2023-01-29T14:53:49.298Z,6.89
2023-01-29T14:56:22.726Z,6.88
2023-01-29T14:59:13.675Z,6.98
2023-01-29T15:02:05.690Z,7.18
2023-01-29T15:04:52.445Z,7.27
2023-01-29T15:08:08.461Z,7.18
2023-01-29T15:10:45.579Z,7.04
2023-01-29T15:13:31.549Z,6.96
2023-01-29T15:16:19.512Z,7.17
2023-01-29T15:19:05.706Z,7.05
2023-01-29T15:21:43.467Z,6.93
2023-01-29T15:24:17.121Z,6.88
2023-01-29T15:26:43.793Z,6.90
2023-01-29T15:29:24.768Z,6.84
2023-01-29T15:31:51.977Z,6.82
2023-01-29T15:34:21.246Z,6.81
2023-01-29T15:36:49.217Z,6.83
2023-01-29T15:39:17.525Z,6.85
2023-01-29T15:41:45.178Z,6.79
2023-01-29T15:44:20.179Z,6.76
2023-01-29T15:47:00.295Z,6.67
2023-01-29T15:49:41.941Z,6.69
2023-01-29T15:52:22.822Z,6.69
2023-01-29T15:55:03.669Z,6.69
2023-01-29T15:57:36.801Z,6.70
2023-01-29T16:00:09.143Z,6.64
2023-01-29T16:02:37.367Z,6.57
2023-01-29T16:05:06.799Z,6.54
2023-01-29T16:07:37.182Z,6.39
2023-01-29T16:10:24.333Z,6.22
2023-01-29T16:12:58.192Z,6.19
2023-01-29T16:15:42.794Z,6.15
2023-01-29T16:18:41.083Z,6.00
2023-01-29T16:21:23.463Z,5.91
2023-01-29T16:24:03.183Z,5.86
2023-01-29T16:26:36.607Z,5.76
2023-01-29T16:29:12.050Z,5.68
2023-01-29T16:31:40.440Z,5.60
2023-01-29T16:34:14.604Z,5.57
2023-01-29T16:36:59.451Z,5.49
2023-01-29T16:39:43.912Z,5.46
2023-01-29T16:42:10.403Z,5.40
2023-01-29T16:44:42.920Z,5.38
2023-01-29T16:47:40.727Z,5.33
2023-01-29T16:50:34.457Z,5.26
2023-01-29T16:53:12.226Z,5.19
2023-01-29T16:56:06.724Z,5.13
2023-01-29T16:58:34.305Z,5.10
2023-01-29T17:01:12.923Z,5.06
2023-01-29T17:03:56.602Z,5.06
2023-01-29T17:06:30.739Z,5.06
2023-01-29T17:08:57.292Z,5.02
2023-01-29T17:11:38.847Z,4.89
2023-01-29T17:14:07.608Z,4.87
2023-01-29T17:16:37.286Z,4.86
2023-01-29T17:19:19.341Z,4.87
2023-01-29T17:21:52.986Z,4.84
2023-01-29T17:24:21.945Z,5.12
2023-01-29T17:26:52.555Z,5.12
2023-01-29T17:29:35.765Z,5.07
2023-01-29T17:32:06.266Z,5.09
2023-01-29T17:34:33.323Z,5.08
2023-01-29T17:37:02.252Z,5.01
2023-01-29T17:39:30.196Z,4.96
2023-01-29T17:41:59.580Z,5.00
2023-01-29T17:44:28.908Z,5.06
2023-01-29T17:46:55.473Z,5.08
2023-01-29T17:49:28.828Z,5.15
2023-01-29T17:51:56.746Z,5.23
2023-01-29T17:54:23.821Z,5.17
2023-01-29T17:56:50.761Z,5.08
2023-01-29T17:59:19.810Z,5.14
2023-01-29T18:01:50.477Z,5.14
2023-01-29T18:04:18.038Z,5.13
2023-01-29T18:06:47.533Z,5.06
2023-01-29T18:09:19.276Z,5.06
2023-01-29T18:11:48.170Z,5.08
2023-01-29T18:14:15.684Z,4.97
2023-01-29T18:16:53.657Z,4.90
2023-01-29T18:19:30.661Z,4.88
2023-01-29T18:21:58.589Z,4.87
2023-01-29T18:24:25.138Z,4.73
2023-01-29T18:26:59.665Z,4.57
2023-01-29T18:29:32.786Z,4.53
2023-01-29T18:32:00.304Z,4.47
2023-01-29T18:34:32.641Z,4.50
2023-01-29T18:36:59.283Z,4.51
2023-01-29T18:39:25.952Z,4.49
2023-01-29T18:41:57.117Z,4.47
2023-01-29T18:47:23.907Z,4.38
2023-01-29T18:49:54.317Z,4.37
2023-01-29T18:52:36.677Z,4.38
2023-01-29T18:55:09.858Z,4.41
2023-01-29T18:58:28.398Z,4.39
2023-01-29T19:00:25.093Z,4.30
2023-01-29T19:02:51.733Z,4.20
2023-01-29T19:05:19.038Z,4.25
2023-01-29T19:07:53.113Z,4.32
2023-01-29T19:10:19.772Z,4.31
2023-01-29T19:12:56.052Z,4.28
2023-01-29T19:15:26.225Z,4.21
2023-01-29T19:17:58.922Z,4.18
2023-01-29T19:20:27.259Z,4.15
2023-01-29T19:23:04.580Z,4.15
2023-01-29T19:25:31.743Z,4.18
2023-01-29T19:28:00.435Z,4.17
2023-01-29T19:30:43.216Z,4.16
2023-01-29T19:33:13.559Z,4.10
2023-01-29T19:35:49.104Z,4.02
2023-01-29T19:38:16.668Z,4.05
2023-01-29T19:41:01.479Z,3.99
2023-01-29T19:43:32.350Z,3.98
2023-01-29T19:46:02.128Z,4.01
2023-01-29T19:48:28.913Z,4.03
2023-01-29T19:51:00.660Z,4.04
2023-01-29T19:53:31.225Z,4.04
2023-01-29T19:56:00.553Z,4.00
2023-01-29T19:58:31.441Z,3.92
2023-01-29T20:01:15.101Z,3.88
2023-01-29T20:03:47.421Z,3.81
2023-01-29T20:06:22.096Z,3.76
2023-01-29T20:08:48.892Z,3.79
2023-01-29T20:11:23.806Z,3.65
2023-01-29T20:13:56.995Z,3.64
2023-01-29T20:16:25.082Z,3.63
2023-01-29T20:18:54.704Z,3.61
2023-01-29T20:21:49.616Z,3.56
2023-01-29T20:24:16.298Z,3.52
2023-01-29T20:26:42.965Z,3.47
2023-01-29T20:29:15.292Z,3.48
2023-01-29T20:31:41.902Z,3.46
2023-01-29T20:34:17.189Z,3.47
2023-01-29T20:36:48.156Z,3.52
2023-01-29T20:39:17.879Z,3.51
2023-01-29T20:41:49.571Z,3.47
2023-01-29T20:44:16.115Z,3.47
2023-01-29T20:46:42.716Z,3.44
2023-01-29T20:49:16.509Z,3.39
2023-01-29T20:51:51.009Z,3.51
2023-01-29T20:54:17.658Z,3.65
2023-01-29T20:56:45.167Z,3.71
2023-01-29T20:59:13.703Z,3.65
2023-01-29T21:01:40.929Z,3.61
2023-01-29T21:04:07.554Z,3.44
2023-01-29T21:06:42.750Z,3.46
2023-01-29T21:09:09.392Z,3.44
2023-01-29T21:11:38.796Z,3.43
2023-01-29T21:14:05.433Z,3.37
2023-01-29T21:16:32.145Z,3.46
2023-01-29T21:19:07.717Z,3.54
2023-01-29T21:21:35.667Z,3.62
2023-01-29T21:24:02.250Z,3.66
2023-01-29T21:26:28.849Z,3.57
2023-01-29T21:28:58.831Z,3.48
2023-01-29T21:31:25.585Z,3.41
2023-01-29T21:33:52.198Z,3.44
2023-01-29T21:36:18.831Z,3.54
2023-01-29T21:38:45.404Z,3.52
2023-01-29T21:41:13.527Z,3.41
2023-01-29T21:43:40.159Z,3.32
2023-01-29T21:46:08.159Z,3.35
2023-01-29T21:48:34.743Z,3.27
2023-01-29T21:51:03.898Z,3.31
2023-01-29T21:53:31.340Z,3.27
2023-01-29T21:56:05.678Z,3.19
2023-01-29T21:58:40.136Z,3.19
2023-01-29T22:01:36.902Z,3.23
2023-01-29T22:04:07.749Z,3.16
2023-01-29T22:06:37.649Z,3.18
2023-01-29T22:09:24.480Z,3.23
2023-01-29T22:11:53.108Z,3.23
2023-01-29T22:14:19.713Z,3.18
2023-01-29T22:16:58.046Z,3.04
2023-01-29T22:19:27.514Z,3.11
2023-01-29T22:21:55.609Z,3.16
2023-01-29T22:24:22.385Z,3.01
2023-01-29T22:26:55.022Z,3.00
2023-01-29T22:29:21.600Z,2.93
2023-01-29T22:31:53.284Z,2.98
2023-01-29T22:34:22.335Z,3.01
2023-01-29T22:36:49.100Z,2.97
2023-01-29T22:39:15.658Z,2.87
2023-01-29T22:41:42.236Z,2.84
2023-01-29T22:44:09.650Z,2.86
2023-01-29T22:46:48.166Z,2.77
2023-01-29T22:49:18.464Z,2.81
2023-01-29T22:51:46.979Z,2.77
2023-01-29T22:54:13.611Z,2.79
2023-01-29T22:56:44.964Z,2.78
2023-01-29T22:59:15.290Z,2.78
2023-01-29T23:01:41.949Z,2.69
2023-01-29T23:04:16.651Z,2.61
2023-01-29T23:07:14.898Z,2.66
2023-01-29T23:09:46.528Z,2.71
2023-01-29T23:12:19.477Z,2.82
2023-01-29T23:14:57.321Z,2.68
2023-01-29T23:17:25.024Z,2.68
2023-01-29T23:19:54.385Z,2.70
2023-01-29T23:22:22.077Z,2.77
2023-01-29T23:24:56.271Z,2.81
2023-01-29T23:27:22.861Z,2.71
2023-01-29T23:29:49.644Z,2.73
2023-01-29T23:32:19.169Z,2.68
2023-01-29T23:34:45.932Z,2.72
2023-01-29T23:37:23.382Z,2.76
2023-01-29T23:39:50.232Z,2.73
2023-01-29T23:42:16.910Z,2.67
2023-01-29T23:44:48.014Z,2.60
2023-01-29T23:47:24.646Z,2.59
2023-01-29T23:49:55.297Z,2.55
2023-01-29T23:52:27.130Z,2.56
2023-01-29T23:54:53.777Z,2.58
2023-01-29T23:57:22.395Z,2.57
2023-01-29T23:59:51.857Z,2.48
